<?xml version="1.0" encoding="UTF-8" standalone="no" ?>
<gpx xmlns="http://www.topografix.com/GPX/1/1" xmlns:xsi="http://www.w3.org/2001/XMLSchema-instance" xsi:schemaLocation="http://www.topografix.com/GPX/1/1 http://www.topografix.com/GPX/1/1/gpx.xsd" version="1.1" creator="VisuGPX - https://www.visugpx.com">
  <metadata>
    <name>luzech 6 descentes</name>
    <desc><![CDATA[parcours typé enduro avec de belles descentes]]></desc>
  </metadata>
  <trk>
    <name><![CDATA[2014-04-01-08-18-57]]></name>
    <trkseg>
      <trkpt lat="44.46289" lon="1.29786">
        <ele>173.839</ele>
        <time>2014-04-01T09:26:32Z</time>
      </trkpt>
      <trkpt lat="44.46309" lon="1.2979">
        <ele>168.147</ele>
        <time>2014-04-01T09:26:38Z</time>
      </trkpt>
      <trkpt lat="44.46324" lon="1.29796">
        <ele>163.302</ele>
        <time>2014-04-01T09:26:43Z</time>
      </trkpt>
      <trkpt lat="44.46328" lon="1.29799">
        <ele>161.672</ele>
        <time>2014-04-01T09:26:45Z</time>
      </trkpt>
      <trkpt lat="44.46338" lon="1.29802">
        <ele>158.611</ele>
        <time>2014-04-01T09:26:50Z</time>
      </trkpt>
      <trkpt lat="44.46348" lon="1.29814">
        <ele>157.305</ele>
        <time>2014-04-01T09:26:53Z</time>
      </trkpt>
      <trkpt lat="44.46365" lon="1.2983">
        <ele>153.215</ele>
        <time>2014-04-01T09:26:58Z</time>
      </trkpt>
      <trkpt lat="44.46368" lon="1.29834">
        <ele>152.428</ele>
        <time>2014-04-01T09:26:59Z</time>
      </trkpt>
      <trkpt lat="44.46381" lon="1.29845">
        <ele>148.418</ele>
        <time>2014-04-01T09:27:04Z</time>
      </trkpt>
      <trkpt lat="44.46385" lon="1.29849">
        <ele>147.732</ele>
        <time>2014-04-01T09:27:05Z</time>
      </trkpt>
      <trkpt lat="44.46401" lon="1.29859">
        <ele>146.091</ele>
        <time>2014-04-01T09:27:09Z</time>
      </trkpt>
      <trkpt lat="44.46409" lon="1.29864">
        <ele>144.342</ele>
        <time>2014-04-01T09:27:13Z</time>
      </trkpt>
      <trkpt lat="44.46423" lon="1.29867">
        <ele>141.416</ele>
        <time>2014-04-01T09:27:17Z</time>
      </trkpt>
      <trkpt lat="44.46426" lon="1.29869">
        <ele>140.533</ele>
        <time>2014-04-01T09:27:18Z</time>
      </trkpt>
      <trkpt lat="44.46429" lon="1.29887">
        <ele>137.464</ele>
        <time>2014-04-01T09:27:22Z</time>
      </trkpt>
      <trkpt lat="44.46427" lon="1.29912">
        <ele>132.796</ele>
        <time>2014-04-01T09:27:27Z</time>
      </trkpt>
      <trkpt lat="44.46424" lon="1.29934">
        <ele>128.431</ele>
        <time>2014-04-01T09:27:32Z</time>
      </trkpt>
      <trkpt lat="44.46426" lon="1.29954">
        <ele>122.679</ele>
        <time>2014-04-01T09:27:37Z</time>
      </trkpt>
      <trkpt lat="44.46436" lon="1.29958">
        <ele>118.725</ele>
        <time>2014-04-01T09:27:41Z</time>
      </trkpt>
      <trkpt lat="44.46444" lon="1.29956">
        <ele>115.131</ele>
        <time>2014-04-01T09:27:45Z</time>
      </trkpt>
      <trkpt lat="44.46444" lon="1.29956">
        <ele>114.636</ele>
        <time>2014-04-01T09:27:47Z</time>
      </trkpt>
    </trkseg>
  </trk>
</gpx>